createdAt,value
2019-01-28T00:01:59.162Z,2.67
2019-01-28T00:04:31.054Z,2.50
2019-01-28T00:07:02.896Z,2.50
2019-01-28T00:09:34.804Z,2.60
2019-01-28T00:12:06.685Z,2.70
2019-01-28T00:14:38.510Z,2.50
2019-01-28T00:17:11.731Z,2.43
2019-01-28T00:19:43.520Z,2.43
2019-01-28T00:22:15.397Z,2.10
2019-01-28T00:24:49.085Z,2.50
2019-01-28T00:27:22.261Z,2.70
2019-01-28T00:29:56.607Z,2.53
2019-01-28T00:32:31.170Z,2.73
2019-01-28T00:35:06.117Z,2.60
2019-01-28T00:37:37.952Z,2.30
2019-01-28T00:40:13.737Z,2.20
2019-01-28T00:42:45.608Z,2.10
2019-01-28T00:45:19.089Z,2.00
2019-01-28T00:47:51.899Z,1.87
2019-01-28T00:50:27.711Z,2.17
2019-01-28T00:53:00.797Z,1.80
2019-01-28T00:55:33.634Z,1.70
2019-01-28T00:58:06.552Z,1.57
2019-01-28T01:00:38.224Z,1.70
2019-01-28T01:03:11.552Z,1.70
2019-01-28T01:05:43.420Z,1.80
2019-01-28T01:08:15.381Z,2.40
2019-01-28T01:10:47.303Z,2.10
2019-01-28T01:13:19.167Z,2.27
2019-01-28T01:15:51.102Z,2.27
2019-01-28T01:18:23.115Z,2.30
2019-01-28T01:20:54.958Z,2.20
2019-01-28T01:23:26.766Z,2.40
2019-01-28T01:25:59.527Z,2.63
2019-01-28T01:28:31.321Z,2.40
2019-01-28T01:31:03.193Z,2.60
2019-01-28T01:33:36.360Z,2.50
2019-01-28T01:36:08.271Z,2.53
2019-01-28T01:38:40.088Z,3.00
2019-01-28T01:41:11.898Z,2.83
2019-01-28T01:43:43.784Z,3.03
2019-01-28T01:46:15.591Z,3.07
2019-01-28T01:48:47.474Z,2.83
2019-01-28T01:51:19.325Z,2.80
2019-01-28T01:53:51.139Z,2.70
2019-01-28T01:56:23.000Z,2.70
2019-01-28T01:58:54.823Z,2.77
2019-01-28T02:01:26.630Z,2.87
2019-01-28T02:03:58.452Z,2.80
2019-01-28T02:06:30.270Z,3.07
2019-01-28T02:09:02.158Z,2.60
2019-01-28T02:11:35.265Z,2.93
2019-01-28T02:14:07.058Z,2.97
2019-01-28T02:16:38.886Z,3.27
2019-01-28T02:19:10.720Z,3.27
2019-01-28T02:21:42.607Z,3.60
2019-01-28T02:24:14.453Z,3.30
2019-01-28T02:26:46.374Z,3.30
2019-01-28T02:29:18.218Z,3.40
2019-01-28T02:31:50.090Z,3.57
2019-01-28T02:34:21.948Z,3.63
2019-01-28T02:36:53.819Z,3.30
2019-01-28T02:39:25.728Z,3.20
2019-01-28T02:41:57.559Z,3.80
2019-01-28T02:44:29.394Z,3.43
2019-01-28T02:47:01.243Z,3.70
2019-01-28T02:49:33.118Z,3.40
2019-01-28T02:52:04.902Z,3.80
2019-01-28T02:54:36.815Z,3.70
2019-01-28T02:57:08.728Z,4.00
2019-01-28T02:59:41.866Z,4.10
2019-01-28T03:02:13.778Z,4.10
2019-01-28T03:04:48.553Z,3.63
2019-01-28T03:07:20.451Z,3.67
2019-01-28T03:09:52.300Z,4.00
2019-01-28T03:12:24.107Z,3.60
2019-01-28T03:14:55.969Z,4.03
2019-01-28T03:17:29.179Z,3.77
2019-01-28T03:20:02.720Z,3.50
2019-01-28T03:22:34.590Z,3.37
2019-01-28T03:25:08.804Z,3.83
2019-01-28T03:27:40.623Z,3.57
2019-01-28T03:30:15.106Z,3.50
2019-01-28T03:32:47.082Z,3.53
2019-01-28T03:35:19.226Z,3.23
2019-01-28T03:37:51.101Z,3.40
2019-01-28T03:40:23.139Z,3.20
2019-01-28T03:42:54.974Z,3.33
2019-01-28T03:45:26.875Z,3.43
2019-01-28T03:47:58.701Z,3.40
2019-01-28T03:50:30.560Z,3.17
2019-01-28T03:53:02.359Z,3.10
2019-01-28T03:55:34.245Z,3.70
2019-01-28T03:58:06.202Z,3.30
2019-01-28T04:00:38.041Z,3.30
2019-01-28T04:03:09.934Z,3.70
2019-01-28T04:05:41.789Z,3.20
2019-01-28T04:08:13.779Z,2.80
2019-01-28T04:10:45.689Z,3.17
2019-01-28T04:13:17.554Z,3.00
2019-01-28T04:15:49.441Z,2.60
2019-01-28T04:18:24.397Z,2.87
2019-01-28T04:20:56.252Z,2.70
2019-01-28T04:23:29.549Z,2.90
2019-01-28T04:26:01.393Z,2.73
2019-01-28T04:28:33.253Z,2.30
2019-01-28T04:31:05.179Z,2.50
2019-01-28T04:33:37.884Z,2.63
2019-01-28T04:36:09.806Z,2.23
2019-01-28T04:38:41.715Z,2.40
2019-01-28T04:41:13.518Z,2.40
2019-01-28T04:43:45.435Z,2.93
2019-01-28T04:46:17.343Z,2.30
2019-01-28T04:48:49.113Z,2.47
2019-01-28T04:51:20.918Z,2.30
2019-01-28T04:53:52.728Z,2.23
2019-01-28T04:56:24.621Z,2.23
2019-01-28T04:58:56.846Z,2.40
2019-01-28T05:01:28.688Z,2.20
2019-01-28T05:04:00.605Z,2.60
2019-01-28T05:06:32.502Z,2.73
2019-01-28T05:09:06.000Z,2.60
2019-01-28T05:11:37.845Z,2.20
2019-01-28T05:14:09.824Z,2.50
2019-01-28T05:16:41.667Z,2.40
2019-01-28T05:19:13.503Z,2.50
2019-01-28T05:21:45.419Z,2.50
2019-01-28T05:24:17.380Z,2.00
2019-01-28T05:26:50.413Z,2.47
2019-01-28T05:29:22.283Z,2.13
2019-01-28T05:31:54.152Z,2.30
2019-01-28T05:34:28.026Z,2.30
2019-01-28T05:36:59.958Z,2.30
2019-01-28T05:39:31.799Z,2.13
2019-01-28T05:42:03.709Z,2.07
2019-01-28T05:44:35.660Z,2.07
2019-01-28T05:47:07.452Z,2.10
2019-01-28T05:49:39.232Z,1.80
2019-01-28T05:52:11.182Z,1.87
2019-01-28T05:54:43.036Z,1.80
2019-01-28T05:57:15.017Z,1.80
2019-01-28T05:59:46.926Z,2.13
2019-01-28T06:02:18.776Z,2.33
2019-01-28T06:04:50.647Z,1.83
2019-01-28T06:07:22.596Z,1.90
2019-01-28T06:09:54.402Z,2.00
2019-01-28T06:12:26.244Z,2.30
2019-01-28T06:14:58.241Z,2.07
2019-01-28T06:17:30.062Z,2.20
2019-01-28T06:20:02.802Z,2.10
2019-01-28T06:22:34.631Z,1.70
2019-01-28T06:25:07.408Z,1.93
2019-01-28T06:27:39.183Z,1.90
2019-01-28T06:30:18.145Z,2.17
2019-01-28T06:32:50.002Z,2.20
2019-01-28T06:35:21.892Z,1.90
2019-01-28T06:37:54.014Z,2.17
2019-01-28T06:40:30.904Z,1.80
2019-01-28T06:43:02.883Z,2.00
2019-01-28T06:45:34.792Z,2.37
2019-01-28T06:48:06.842Z,2.30
2019-01-28T06:50:38.701Z,2.00
2019-01-28T06:53:10.565Z,2.00
2019-01-28T06:55:42.513Z,1.70
2019-01-28T06:58:14.372Z,1.87
2019-01-28T07:00:46.406Z,2.07
2019-01-28T07:03:20.993Z,1.90
2019-01-28T07:05:52.853Z,2.00
2019-01-28T07:08:36.146Z,2.20
2019-01-28T07:11:08.019Z,2.23
2019-01-28T07:13:40.084Z,2.20
2019-01-28T07:16:12.250Z,2.10
2019-01-28T07:18:46.435Z,1.90
2019-01-28T07:21:18.651Z,2.10
2019-01-28T07:23:50.672Z,2.53
2019-01-28T07:26:22.942Z,1.90
2019-01-28T07:28:56.402Z,1.90
2019-01-28T07:31:30.109Z,1.97
2019-01-28T07:34:02.330Z,1.97
2019-01-28T07:36:34.270Z,1.77
2019-01-28T07:39:09.062Z,2.10
2019-01-28T07:41:41.306Z,1.87
2019-01-28T07:44:13.573Z,1.80
2019-01-28T07:46:45.758Z,1.83
2019-01-28T07:49:18.018Z,1.73
2019-01-28T07:51:49.864Z,1.93
2019-01-28T07:54:22.055Z,1.80
2019-01-28T07:56:56.123Z,1.93
2019-01-28T07:59:28.240Z,1.90
2019-01-28T08:02:01.877Z,1.70
2019-01-28T08:04:35.085Z,2.00
2019-01-28T08:07:07.400Z,1.70
2019-01-28T08:09:39.602Z,1.67
2019-01-28T08:12:11.598Z,2.03
2019-01-28T08:14:45.207Z,1.80
2019-01-28T08:17:19.973Z,1.90
2019-01-28T08:19:52.135Z,1.60
2019-01-28T08:22:24.202Z,1.57
2019-01-28T08:24:56.556Z,1.60
2019-01-28T08:27:30.562Z,1.53
2019-01-28T08:30:04.107Z,1.50
2019-01-28T08:32:36.722Z,1.70
2019-01-28T08:35:09.169Z,1.80
2019-01-28T08:37:42.426Z,1.50
2019-01-28T08:40:14.891Z,1.63
2019-01-28T08:42:48.583Z,1.60
2019-01-28T08:45:21.905Z,1.60
2019-01-28T08:47:54.302Z,1.57
2019-01-28T08:50:26.484Z,1.70
2019-01-28T08:53:00.080Z,1.50
2019-01-28T08:55:32.393Z,1.60
2019-01-28T08:58:06.723Z,1.70
2019-01-28T09:00:43.898Z,1.43
2019-01-28T09:03:17.473Z,1.40
2019-01-28T09:05:49.451Z,1.70
2019-01-28T09:08:21.752Z,1.50
2019-01-28T09:10:53.928Z,1.40
2019-01-28T09:13:26.067Z,1.47
2019-01-28T09:16:12.645Z,1.40
2019-01-28T09:18:45.979Z,1.90
2019-01-28T09:21:18.278Z,2.47
2019-01-28T09:23:50.467Z,1.40
2019-01-28T09:26:22.411Z,1.40
2019-01-28T09:28:55.521Z,1.20
2019-01-28T09:31:28.521Z,1.20
2019-01-28T09:34:01.980Z,1.00
2019-01-28T09:36:34.217Z,1.20
2019-01-28T09:39:08.969Z,0.93
2019-01-28T09:41:40.974Z,1.20
2019-01-28T09:44:13.139Z,1.10
2019-01-28T09:46:45.294Z,1.20
2019-01-28T09:49:17.745Z,1.00
2019-01-28T09:51:49.906Z,1.10
2019-01-28T09:54:21.927Z,1.30
2019-01-28T09:56:54.309Z,1.20
2019-01-28T09:59:27.682Z,1.10
2019-01-28T10:01:59.552Z,1.20
2019-01-28T10:04:33.025Z,1.40
2019-01-28T10:07:05.091Z,1.20
2019-01-28T10:09:37.388Z,1.07
2019-01-28T10:12:10.762Z,1.00
2019-01-28T10:14:45.063Z,1.13
2019-01-28T10:17:18.204Z,1.50
2019-01-28T10:19:50.235Z,0.90
2019-01-28T10:22:22.282Z,0.80
2019-01-28T10:24:54.170Z,1.13
2019-01-28T10:27:26.174Z,1.20
2019-01-28T10:29:58.289Z,1.10
2019-01-28T10:32:36.022Z,1.13
2019-01-28T10:35:07.336Z,1.07
2019-01-28T10:37:40.523Z,0.93
2019-01-28T10:40:16.631Z,0.97
2019-01-28T10:42:48.718Z,0.80
2019-01-28T10:45:21.030Z,1.10
2019-01-28T10:47:53.311Z,1.00
2019-01-28T10:50:25.983Z,1.00
2019-01-28T10:52:58.501Z,0.93
2019-01-28T10:55:31.323Z,1.20
2019-01-28T10:58:04.756Z,1.03
2019-01-28T11:00:46.832Z,1.00
2019-01-28T11:03:22.959Z,1.17
2019-01-28T11:05:56.363Z,1.07
2019-01-28T11:08:29.638Z,0.90
2019-01-28T11:11:03.982Z,1.10
2019-01-28T11:13:36.124Z,1.00
2019-01-28T11:16:09.987Z,1.00
2019-01-28T11:18:44.438Z,1.00
2019-01-28T11:21:16.506Z,0.90
2019-01-28T11:23:48.738Z,0.90
2019-01-28T11:26:24.290Z,1.00
2019-01-28T11:28:56.418Z,1.10
2019-01-28T11:31:28.463Z,1.00
2019-01-28T11:34:00.725Z,2.60
2019-01-28T11:36:33.418Z,1.07
2019-01-28T11:39:07.649Z,1.10
2019-01-28T11:41:41.142Z,1.40
2019-01-28T11:44:13.227Z,1.10
2019-01-28T11:46:45.595Z,1.07
2019-01-28T11:49:18.491Z,1.00
2019-01-28T11:51:50.850Z,0.90
2019-01-28T11:54:23.151Z,1.10
2019-01-28T11:56:56.502Z,1.20
2019-01-28T11:59:29.852Z,0.90
2019-01-28T12:02:02.979Z,1.03
2019-01-28T12:04:35.893Z,0.90
2019-01-28T12:07:07.910Z,1.10
2019-01-28T12:09:40.191Z,1.07
2019-01-28T12:12:12.300Z,1.10
2019-01-28T12:14:44.650Z,1.00
2019-01-28T12:17:16.927Z,1.20
2019-01-28T12:19:50.699Z,0.87
2019-01-28T12:22:23.318Z,1.20
2019-01-28T12:24:55.559Z,0.90
2019-01-28T12:27:28.079Z,0.80
2019-01-28T12:30:01.404Z,0.90
2019-01-28T12:32:33.675Z,1.00
2019-01-28T12:35:06.647Z,1.00
2019-01-28T12:37:39.752Z,0.80
2019-01-28T12:40:12.789Z,0.90
2019-01-28T12:42:45.084Z,0.90
2019-01-28T12:45:19.157Z,1.00
2019-01-28T12:47:52.458Z,0.90
2019-01-28T12:50:25.061Z,1.00
2019-01-28T12:52:57.085Z,1.00
2019-01-28T12:55:30.330Z,0.90
2019-01-28T12:58:02.389Z,0.90
2019-01-28T13:00:40.789Z,0.97
2019-01-28T13:03:13.489Z,0.80
2019-01-28T13:05:45.741Z,0.80
2019-01-28T13:08:17.698Z,1.10
2019-01-28T13:10:50.100Z,0.90
2019-01-28T13:13:23.444Z,0.93
2019-01-28T13:15:55.803Z,1.60
2019-01-28T13:18:28.027Z,4.53
2019-01-28T13:21:00.192Z,1.00
2019-01-28T13:23:32.489Z,0.97
2019-01-28T13:26:05.538Z,1.00
2019-01-28T13:28:37.670Z,1.10
2019-01-28T13:31:10.995Z,0.90
2019-01-28T13:33:43.146Z,0.93
2019-01-28T13:36:16.511Z,1.00
2019-01-28T13:38:48.717Z,0.80
2019-01-28T13:41:20.653Z,1.00
2019-01-28T13:43:53.832Z,1.00
2019-01-28T13:46:26.010Z,1.30
2019-01-28T13:48:59.143Z,1.03
2019-01-28T13:51:32.643Z,1.00
2019-01-28T13:54:04.931Z,0.90
2019-01-28T13:56:38.507Z,1.00
2019-01-28T13:59:16.693Z,1.10
2019-01-28T14:01:49.049Z,1.10
2019-01-28T14:04:21.313Z,1.10
2019-01-28T14:06:53.526Z,1.10
2019-01-28T14:09:25.686Z,1.10
2019-01-28T14:11:58.043Z,0.93
2019-01-28T14:14:30.285Z,1.30
2019-01-28T14:17:04.709Z,1.10
2019-01-28T14:19:36.999Z,1.10
2019-01-28T14:22:10.375Z,1.10
2019-01-28T14:24:43.447Z,1.40
2019-01-28T14:27:17.851Z,1.10
2019-01-28T14:29:49.885Z,1.10
2019-01-28T14:32:24.330Z,1.20
2019-01-28T14:34:58.383Z,1.30
2019-01-28T14:37:30.468Z,1.20
2019-01-28T14:40:02.920Z,1.93
2019-01-28T14:42:35.120Z,1.33
2019-01-28T14:45:08.199Z,1.40
2019-01-28T14:47:41.225Z,1.30
2019-01-28T14:50:20.514Z,1.37
2019-01-28T14:52:52.641Z,1.30
2019-01-28T14:55:24.899Z,1.30
2019-01-28T14:57:56.860Z,1.30
2019-01-28T15:00:31.259Z,1.50
2019-01-28T15:03:03.374Z,1.37
2019-01-28T15:05:35.663Z,1.37
2019-01-28T15:08:07.967Z,1.50
2019-01-28T15:10:40.580Z,1.50
2019-01-28T15:13:12.716Z,1.70
2019-01-28T15:15:44.947Z,1.70
2019-01-28T15:18:18.649Z,1.90
2019-01-28T15:20:50.828Z,1.70
2019-01-28T15:23:23.092Z,1.93
2019-01-28T15:25:55.140Z,2.00
2019-01-28T15:28:29.429Z,1.87
2019-01-28T15:31:01.528Z,2.43
2019-01-28T15:33:33.653Z,1.93
2019-01-28T15:36:07.256Z,2.10
2019-01-28T15:38:40.587Z,2.00
2019-01-28T15:41:14.029Z,2.10
2019-01-28T15:43:48.653Z,2.17
2019-01-28T15:46:20.984Z,2.07
2019-01-28T15:48:53.168Z,2.00
2019-01-28T15:51:25.000Z,2.10
2019-01-28T15:53:58.019Z,2.00
2019-01-28T15:56:30.182Z,2.20
2019-01-28T15:59:02.288Z,2.20
2019-01-28T16:01:34.235Z,2.20
2019-01-28T16:04:07.443Z,2.23
2019-01-28T16:06:40.441Z,1.93
2019-01-28T16:09:12.724Z,2.20
2019-01-28T16:11:44.521Z,2.33
2019-01-28T16:14:18.031Z,2.30
2019-01-28T16:16:50.318Z,2.53
2019-01-28T16:19:22.547Z,2.23
2019-01-28T16:21:54.772Z,2.60
2019-01-28T16:24:27.185Z,2.50
2019-01-28T16:26:59.357Z,2.10
2019-01-28T16:29:32.575Z,2.17
2019-01-28T16:32:04.728Z,2.17
2019-01-28T16:34:43.533Z,2.00
2019-01-28T16:37:16.440Z,2.20
2019-01-28T16:39:48.642Z,2.27
2019-01-28T16:42:22.694Z,2.40
2019-01-28T16:44:55.678Z,2.63
2019-01-28T16:47:27.612Z,2.70
2019-01-28T16:49:59.698Z,2.30
2019-01-28T16:52:32.045Z,2.60
2019-01-28T16:55:04.640Z,2.13
2019-01-28T16:57:36.826Z,2.10
2019-01-28T17:00:14.028Z,2.33
2019-01-28T17:02:47.302Z,2.27
2019-01-28T17:05:19.828Z,2.60
2019-01-28T17:07:51.943Z,2.37
2019-01-28T17:10:24.407Z,2.20
2019-01-28T17:12:57.508Z,2.47
2019-01-28T17:15:30.742Z,2.60
2019-01-28T17:18:04.223Z,2.27
2019-01-28T17:20:36.561Z,2.40
2019-01-28T17:23:09.983Z,2.37
2019-01-28T17:25:47.012Z,2.20
2019-01-28T17:28:19.115Z,2.60
2019-01-28T17:30:51.956Z,2.40
2019-01-28T17:33:25.651Z,2.53
2019-01-28T17:35:57.732Z,2.50
2019-01-28T17:38:29.952Z,2.60
2019-01-28T17:41:03.557Z,2.60
2019-01-28T17:43:35.725Z,2.67
2019-01-28T17:46:07.815Z,2.63
2019-01-28T17:48:39.853Z,3.00
2019-01-28T17:51:11.911Z,2.87
2019-01-28T17:54:02.478Z,2.90
2019-01-28T17:56:35.092Z,3.20
2019-01-28T17:59:08.212Z,3.20
2019-01-28T18:01:42.276Z,2.90
2019-01-28T18:04:14.411Z,2.73
2019-01-28T18:06:46.604Z,2.70
2019-01-28T18:09:19.479Z,2.80
2019-01-28T18:11:51.774Z,2.60
2019-01-28T18:14:23.936Z,2.60
2019-01-28T18:16:55.913Z,2.70
2019-01-28T18:19:27.880Z,3.37
2019-01-28T18:21:59.839Z,3.20
2019-01-28T18:24:32.667Z,3.20
2019-01-28T18:27:05.506Z,3.73
2019-01-28T18:29:38.615Z,3.00
2019-01-28T18:32:10.642Z,3.37
2019-01-28T18:34:42.649Z,3.40
2019-01-28T18:37:14.740Z,3.83
2019-01-28T18:39:49.215Z,3.57
2019-01-28T18:42:21.889Z,3.40
2019-01-28T18:44:56.977Z,3.63
2019-01-28T18:47:29.789Z,3.50
2019-01-28T18:50:01.808Z,3.67
2019-01-28T18:52:34.755Z,3.60
2019-01-28T18:55:07.775Z,3.80
2019-01-28T18:57:39.791Z,3.83
2019-01-28T19:00:16.148Z,3.90
2019-01-28T19:02:49.494Z,3.40
2019-01-28T19:05:38.880Z,3.70
2019-01-28T19:08:40.443Z,3.73
2019-01-28T19:11:36.222Z,4.13
2019-01-28T19:14:21.140Z,4.10
2019-01-28T19:17:16.276Z,4.03
2019-01-28T19:20:06.713Z,3.93
2019-01-28T19:22:39.238Z,4.00
2019-01-28T19:25:12.544Z,4.23
2019-01-28T19:27:46.735Z,4.43
2019-01-28T19:30:21.021Z,4.30
2019-01-28T19:32:54.027Z,3.87
2019-01-28T19:35:26.070Z,4.20
2019-01-28T19:37:58.151Z,3.83
2019-01-28T19:40:30.288Z,3.73
2019-01-28T19:43:03.589Z,3.90
2019-01-28T19:45:36.747Z,3.70
2019-01-28T19:48:09.914Z,4.03
2019-01-28T19:50:42.210Z,3.37
2019-01-28T19:53:16.002Z,3.80
2019-01-28T19:55:48.196Z,3.60
2019-01-28T19:58:20.409Z,3.53
2019-01-28T20:00:53.731Z,3.80
2019-01-28T20:03:28.608Z,3.60
2019-01-28T20:06:03.151Z,3.97
2019-01-28T20:08:38.642Z,4.53
2019-01-28T20:11:11.870Z,4.00
2019-01-28T20:13:43.916Z,4.30
2019-01-28T20:16:17.447Z,3.83
2019-01-28T20:18:53.269Z,3.50
2019-01-28T20:21:25.289Z,3.60
2019-01-28T20:23:57.243Z,3.43
2019-01-28T20:26:29.489Z,3.80
2019-01-28T20:29:01.683Z,3.20
2019-01-28T20:31:35.103Z,3.60
2019-01-28T20:34:10.359Z,3.73
2019-01-28T20:36:43.411Z,3.97
2019-01-28T20:39:15.524Z,3.80
2019-01-28T20:41:48.892Z,3.97
2019-01-28T20:44:21.407Z,4.37
2019-01-28T20:46:53.653Z,4.00
2019-01-28T20:49:28.174Z,4.17
2019-01-28T20:52:00.394Z,4.40
2019-01-28T20:54:33.775Z,4.67
2019-01-28T20:57:07.212Z,5.00
2019-01-28T20:59:39.487Z,4.47
2019-01-28T21:02:13.782Z,4.90
2019-01-28T21:04:45.735Z,4.63
2019-01-28T21:07:19.117Z,5.07
2019-01-28T21:09:51.162Z,4.50
2019-01-28T21:12:24.269Z,4.90
2019-01-28T21:14:56.352Z,5.00
2019-01-28T21:17:28.787Z,5.40
2019-01-28T21:20:01.183Z,4.97
2019-01-28T21:22:33.126Z,5.23
2019-01-28T21:25:06.181Z,5.20
2019-01-28T21:27:38.224Z,5.63
2019-01-28T21:30:14.575Z,5.20
2019-01-28T21:32:47.990Z,5.73
2019-01-28T21:35:23.577Z,6.03
2019-01-28T21:38:03.286Z,5.67
2019-01-28T21:40:37.399Z,5.80
2019-01-28T21:43:10.705Z,5.27
2019-01-28T21:45:42.813Z,5.60
2019-01-28T21:48:16.817Z,5.60
2019-01-28T21:50:50.112Z,5.73
2019-01-28T21:53:22.213Z,5.33
2019-01-28T21:55:54.136Z,5.30
2019-01-28T21:58:27.323Z,5.47
2019-01-28T22:00:59.427Z,5.30
2019-01-28T22:03:32.682Z,5.60
2019-01-28T22:06:04.773Z,5.13
2019-01-28T22:08:36.819Z,4.87
2019-01-28T22:11:08.692Z,4.80
2019-01-28T22:13:41.896Z,4.70
2019-01-28T22:16:13.989Z,4.93
2019-01-28T22:18:47.105Z,5.00
2019-01-28T22:21:19.169Z,5.13
2019-01-28T22:23:53.703Z,4.80
2019-01-28T22:26:26.664Z,5.10
2019-01-28T22:28:59.747Z,5.07
2019-01-28T22:31:31.875Z,5.20
2019-01-28T22:34:04.045Z,5.17
2019-01-28T22:36:37.070Z,5.17
2019-01-28T22:39:10.748Z,5.27
2019-01-28T22:41:43.118Z,5.70
2019-01-28T22:44:15.483Z,5.10
2019-01-28T22:46:47.546Z,5.10
2019-01-28T22:49:20.048Z,4.77
2019-01-28T22:51:51.958Z,5.53
2019-01-28T22:54:25.926Z,4.90
2019-01-28T22:56:58.670Z,5.00
2019-01-28T22:59:30.861Z,4.50
2019-01-28T23:02:03.249Z,4.50
2019-01-28T23:04:36.634Z,4.30
2019-01-28T23:07:08.761Z,4.50
2019-01-28T23:09:40.763Z,3.97
2019-01-28T23:12:13.247Z,3.83
2019-01-28T23:14:45.538Z,3.73
2019-01-28T23:17:17.776Z,4.03
2019-01-28T23:19:49.800Z,4.10
2019-01-28T23:22:22.026Z,3.80
2019-01-28T23:24:53.974Z,4.00
2019-01-28T23:27:26.214Z,3.50
2019-01-28T23:29:58.431Z,3.77
2019-01-28T23:32:32.792Z,3.97
2019-01-28T23:35:05.062Z,3.97
2019-01-28T23:37:37.110Z,4.00
2019-01-28T23:40:09.622Z,3.50
2019-01-28T23:42:42.110Z,3.40
2019-01-28T23:45:14.155Z,3.63
2019-01-28T23:47:46.063Z,3.73
2019-01-28T23:50:17.924Z,3.80
2019-01-28T23:52:50.045Z,3.80
2019-01-28T23:55:22.363Z,4.10
2019-01-28T23:57:56.901Z,4.13
